Time;durP1;ratioP1;P1;durP2;ratioP2;P2;SDS_P1;SDS_P2;PMS_P1;PMS_P2;Temp;Humidity;BMP_temperature;BMP_pressure;BME280_temperature;BME280_humidity;BME280_pressure;Samples;Min_cycle;Max_cycle;Signal;HPM_P1;HPM_P2
2023/07/29 00:01:09;;;;;;;1.40;1.35;;;;;;;;;;5011117;28;20198;-87
2023/07/29 00:03:36;;;;;;;8.68;1.50;;;;;;;;;;5011165;28;20212;-87
2023/07/29 00:06:03;;;;;;;1.33;1.33;;;;;;;;;;5010377;28;20660;-87
2023/07/29 00:08:30;;;;;;;1.27;1.27;;;;;;;;;;5011911;28;20211;-87
2023/07/29 00:10:57;;;;;;;1.20;1.20;;;;;;;;;;5011181;28;20199;-86
2023/07/29 00:13:24;;;;;;;1.27;1.27;;;;;;;;;;5012688;28;20306;-87
2023/07/29 00:15:54;;;;;;;5.43;1.50;;;;;;;;;;5015780;28;20204;-87
2023/07/29 00:18:23;;;;;;;1.58;1.40;;;;;;;;;;5016148;28;20265;-88
2023/07/29 00:20:50;;;;;;;3.47;1.45;;;;;;;;;;5015176;28;20206;-87
2023/07/29 00:23:19;;;;;;;1.88;1.73;;;;;;;;;;5012509;28;20266;-87
2023/07/29 00:25:46;;;;;;;4.63;1.75;;;;;;;;;;5010918;28;20626;-87
2023/07/29 00:28:13;;;;;;;1.45;1.45;;;;;;;;;;5010245;28;20526;-88
2023/07/29 00:30:40;;;;;;;1.42;1.42;;;;;;;;;;5010095;28;20207;-86
2023/07/29 00:33:07;;;;;;;1.48;1.38;;;;;;;;;;5011090;28;20201;-86
2023/07/29 00:35:36;;;;;;;1.60;1.60;;;;;;;;;;5009597;28;20210;-86
2023/07/29 00:38:06;;;;;;;2.28;1.42;;;;;;;;;;5010432;28;20211;-87
2023/07/29 00:40:36;;;;;;;1.52;1.42;;;;;;;;;;5009953;28;20608;-86
2023/07/29 00:43:03;;;;;;;1.90;1.80;;;;;;;;;;5002215;28;20302;-87
2023/07/29 00:45:30;;;;;;;2.35;1.70;;;;;;;;;;4990123;28;20212;-87
2023/07/29 00:47:58;;;;;;;1.90;1.80;;;;;;;;;;4991196;28;20316;-87
2023/07/29 00:50:27;;;;;;;18.65;11.13;;;;;;;;;;4990594;28;20210;-87
2023/07/29 00:52:56;;;;;;;6.35;4.97;;;;;;;;;;4990067;28;20207;-87
2023/07/29 00:55:23;;;;;;;1.88;1.77;;;;;;;;;;4990373;28;20203;-87
2023/07/29 00:57:51;;;;;;;1.83;1.73;;;;;;;;;;4990666;28;20690;-87
2023/07/29 01:00:18;;;;;;;2.55;1.60;;;;;;;;;;4990257;28;20275;-86
2023/07/29 01:02:45;;;;;;;3.78;1.67;;;;;;;;;;4990360;28;20204;-86
2023/07/29 01:05:14;;;;;;;1.58;1.50;;;;;;;;;;4991552;28;20290;-87
2023/07/29 01:07:46;;;;;;;2.07;1.90;;;;;;;;;;5009597;28;20261;-87
2023/07/29 01:10:20;;;;;;;1.38;1.33;;;;;;;;;;5010411;28;20253;-86
2023/07/29 01:12:51;;;;;;;1.83;1.73;;;;;;;;;;5009406;28;20268;-87
2023/07/29 01:15:22;;;;;;;4.60;1.73;;;;;;;;;;5009231;28;20233;-86
2023/07/29 01:17:53;;;;;;;1.75;1.65;;;;;;;;;;5009920;28;20284;-86
2023/07/29 01:20:21;;;;;;;1.92;1.80;;;;;;;;;;5008648;28;20204;-87
2023/07/29 01:22:48;;;;;;;1.87;1.77;;;;;;;;;;5009063;28;20586;-87
2023/07/29 01:25:16;;;;;;;2.33;1.33;;;;;;;;;;5009378;28;20283;-87
2023/07/29 01:27:43;;;;;;;1.45;1.40;;;;;;;;;;5009246;28;20217;-86
2023/07/29 01:30:10;;;;;;;1.93;1.83;;;;;;;;;;5009340;28;20221;-87
2023/07/29 01:32:40;;;;;;;3.43;1.60;;;;;;;;;;5009354;28;20333;-86
2023/07/29 01:35:14;;;;;;;2.13;1.70;;;;;;;;;;5008209;28;20238;-86
2023/07/29 01:37:42;;;;;;;1.67;1.57;;;;;;;;;;5009786;28;20217;-86
2023/07/29 01:40:10;;;;;;;2.58;1.73;;;;;;;;;;5009121;28;20220;-87
2023/07/29 01:42:38;;;;;;;1.53;1.43;;;;;;;;;;5009842;28;20347;-86
2023/07/29 01:45:06;;;;;;;1.90;1.80;;;;;;;;;;5018682;28;20198;-87
2023/07/29 01:47:34;;;;;;;2.67;1.80;;;;;;;;;;5025674;28;20271;-87
2023/07/29 01:50:01;;;;;;;5.20;1.43;;;;;;;;;;5011529;28;20207;-87
2023/07/29 01:52:27;;;;;;;1.93;1.60;;;;;;;;;;5008148;28;20207;-86
2023/07/29 01:54:55;;;;;;;1.88;1.67;;;;;;;;;;5008638;28;20237;-85
2023/07/29 01:57:22;;;;;;;2.00;1.77;;;;;;;;;;5009695;28;20320;-86
2023/07/29 01:59:51;;;;;;;1.63;1.63;;;;;;;;;;5009654;28;20278;-85
2023/07/29 02:02:18;;;;;;;3.22;1.83;;;;;;;;;;5009512;28;20223;-87
2023/07/29 02:04:51;;;;;;;1.30;1.30;;;;;;;;;;5008750;28;20709;-86
2023/07/29 02:07:17;;;;;;;14.77;7.77;;;;;;;;;;5008712;28;20618;-87
2023/07/29 02:09:44;;;;;;;4.43;3.70;;;;;;;;;;5009584;28;20643;-87
2023/07/29 02:12:11;;;;;;;1.67;1.57;;;;;;;;;;5009205;28;20230;-87
2023/07/29 02:14:38;;;;;;;1.67;1.57;;;;;;;;;;5008844;28;20608;-87
2023/07/29 02:17:08;;;;;;;13.47;1.90;;;;;;;;;;5009732;28;20689;-87
2023/07/29 02:19:35;;;;;;;1.57;1.47;;;;;;;;;;5009333;28;20197;-87
2023/07/29 02:22:02;;;;;;;1.30;1.30;;;;;;;;;;5008354;28;20315;-87
2023/07/29 02:24:29;;;;;;;1.90;1.80;;;;;;;;;;5009289;28;20254;-87
2023/07/29 02:26:56;;;;;;;2.50;1.83;;;;;;;;;;5008784;28;20204;-86
2023/07/29 02:29:24;;;;;;;2.33;1.80;;;;;;;;;;5008685;28;20206;-87
2023/07/29 02:31:52;;;;;;;2.33;2.23;;;;;;;;;;5009931;28;20300;-87
2023/07/29 02:34:21;;;;;;;1.70;1.60;;;;;;;;;;5010463;28;20269;-86
2023/07/29 02:36:48;;;;;;;2.03;1.93;;;;;;;;;;5013363;28;20583;-86
2023/07/29 02:39:15;;;;;;;1.70;1.60;;;;;;;;;;5022690;28;20247;-85
2023/07/29 02:41:43;;;;;;;2.00;1.90;;;;;;;;;;5029373;28;20185;-87
2023/07/29 02:44:09;;;;;;;3.53;1.67;;;;;;;;;;5011371;28;20224;-85
2023/07/29 02:46:37;;;;;;;1.90;1.90;;;;;;;;;;5010546;28;20206;-86
2023/07/29 02:49:04;;;;;;;2.13;1.93;;;;;;;;;;5012271;28;20200;-86
2023/07/29 02:51:33;;;;;;;3.72;2.13;;;;;;;;;;5013064;28;20292;-87
2023/07/29 02:54:00;;;;;;;1.80;1.70;;;;;;;;;;5012760;28;20309;-87
2023/07/29 02:56:27;;;;;;;1.70;1.60;;;;;;;;;;5012302;28;20229;-87
2023/07/29 02:58:54;;;;;;;2.58;2.28;;;;;;;;;;5011884;28;20290;-86
2023/07/29 03:01:22;;;;;;;2.10;1.90;;;;;;;;;;5012222;28;20199;-86
2023/07/29 03:03:49;;;;;;;3.90;1.97;;;;;;;;;;5010432;28;20227;-86
2023/07/29 03:06:16;;;;;;;1.73;1.63;;;;;;;;;;5012237;28;20205;-87
2023/07/29 03:08:44;;;;;;;2.27;2.13;;;;;;;;;;5011357;28;20228;-87
2023/07/29 03:11:12;;;;;;;6.27;2.37;;;;;;;;;;5011148;28;20206;-87
2023/07/29 03:13:40;;;;;;;2.33;1.93;;;;;;;;;;5011746;28;20252;-87
2023/07/29 03:16:09;;;;;;;4.83;2.20;;;;;;;;;;5010902;28;20703;-86
2023/07/29 03:18:36;;;;;;;2.23;2.03;;;;;;;;;;5010791;28;20611;-87
2023/07/29 03:21:04;;;;;;;1.87;1.77;;;;;;;;;;5011845;28;20216;-87
2023/07/29 03:23:32;;;;;;;2.13;2.03;;;;;;;;;;5011642;28;20202;-87
2023/07/29 03:26:01;;;;;;;2.33;2.13;;;;;;;;;;5012397;28;20197;-87
2023/07/29 03:28:29;;;;;;;1.67;1.60;;;;;;;;;;5012269;28;20198;-87
2023/07/29 03:30:56;;;;;;;2.10;2.00;;;;;;;;;;5012707;28;20205;-87
2023/07/29 03:33:23;;;;;;;2.43;2.23;;;;;;;;;;5012999;28;20292;-87
2023/07/29 03:35:50;;;;;;;2.33;1.70;;;;;;;;;;5018050;28;20241;-86
2023/07/29 03:38:16;;;;;;;3.97;2.47;;;;;;;;;;5018922;28;20223;-87
2023/07/29 03:40:44;;;;;;;2.30;2.20;;;;;;;;;;5020356;28;20197;-88
2023/07/29 03:43:13;;;;;;;2.10;1.90;;;;;;;;;;5024222;28;20274;-86
2023/07/29 03:45:40;;;;;;;2.97;2.53;;;;;;;;;;5023551;28;20207;-87
2023/07/29 03:48:08;;;;;;;2.08;1.98;;;;;;;;;;5028636;28;20366;-87
2023/07/29 03:50:35;;;;;;;2.90;2.42;;;;;;;;;;5033020;28;20225;-86
2023/07/29 03:53:02;;;;;;;5.60;2.30;;;;;;;;;;5028704;28;20250;-86
2023/07/29 03:55:30;;;;;;;2.47;2.28;;;;;;;;;;5022532;28;20233;-88
2023/07/29 03:57:58;;;;;;;8.75;2.78;;;;;;;;;;5016662;28;20197;-88
2023/07/29 04:00:27;;;;;;;3.33;1.92;;;;;;;;;;5013302;28;20209;-86
2023/07/29 04:02:54;;;;;;;2.67;2.47;;;;;;;;;;5012913;28;20201;-87
2023/07/29 04:05:22;;;;;;;2.10;1.90;;;;;;;;;;5012907;28;20696;-87
2023/07/29 04:07:49;;;;;;;2.28;2.17;;;;;;;;;;5015359;28;20189;-88
2023/07/29 04:10:16;;;;;;;2.67;2.47;;;;;;;;;;5018188;28;20211;-87
2023/07/29 04:12:44;;;;;;;2.65;2.40;;;;;;;;;;5015030;28;20300;-87
2023/07/29 04:15:14;;;;;;;2.80;2.60;;;;;;;;;;5012918;28;20274;-88
2023/07/29 04:17:44;;;;;;;2.63;2.40;;;;;;;;;;5011746;28;20221;-88
2023/07/29 04:20:15;;;;;;;2.30;2.20;;;;;;;;;;5011515;28;20288;-88
2023/07/29 04:22:43;;;;;;;2.58;2.40;;;;;;;;;;5011040;28;20255;-87
2023/07/29 04:25:14;;;;;;;2.95;2.75;;;;;;;;;;5010890;28;20205;-87
2023/07/29 04:27:41;;;;;;;2.88;2.67;;;;;;;;;;5010937;28;20252;-89
2023/07/29 04:30:09;;;;;;;2.75;2.25;;;;;;;;;;5011551;28;20277;-87
2023/07/29 04:32:37;;;;;;;4.45;2.63;;;;;;;;;;5009998;28;20255;-88
2023/07/29 04:35:10;;;;;;;2.30;2.20;;;;;;;;;;5010230;28;20733;-87
2023/07/29 04:37:38;;;;;;;5.85;2.72;;;;;;;;;;5010507;28;20596;-86
2023/07/29 04:40:06;;;;;;;3.03;2.83;;;;;;;;;;5011975;28;20201;-87
2023/07/29 04:42:34;;;;;;;2.58;2.45;;;;;;;;;;5013254;28;20193;-86
2023/07/29 04:45:01;;;;;;;2.75;2.55;;;;;;;;;;5013939;28;20200;-89
2023/07/29 04:47:29;;;;;;;5.95;2.50;;;;;;;;;;5014266;28;20286;-87
2023/07/29 04:49:56;;;;;;;2.63;2.30;;;;;;;;;;5012363;28;20228;-87
2023/07/29 04:52:29;;;;;;;2.97;2.78;;;;;;;;;;5012083;28;20208;-87
2023/07/29 04:55:00;;;;;;;3.15;2.95;;;;;;;;;;5014412;28;20294;-87
2023/07/29 04:57:26;;;;;;;3.80;2.92;;;;;;;;;;5014298;28;20232;-86
2023/07/29 04:59:55;;;;;;;6.72;3.50;;;;;;;;;;5011579;28;20208;-85
2023/07/29 05:02:23;;;;;;;3.70;3.40;;;;;;;;;;5014477;28;20208;-86
2023/07/29 05:05:09;;;;;;;;;;;;;;;;;;;;;
2023/07/29 05:07:40;;;;;;;3.55;3.25;;;;;;;;;;5017796;28;20264;-87
2023/07/29 05:10:09;;;;;;;4.80;3.33;;;;;;;;;;5016170;28;20238;-86
2023/07/29 05:12:36;;;;;;;7.03;4.20;;;;;;;;;;5017458;28;20699;-86
2023/07/29 05:15:06;;;;;;;2.83;2.63;;;;;;;;;;5013716;28;20263;-89
2023/07/29 05:17:33;;;;;;;2.38;2.28;;;;;;;;;;5011283;28;20200;-86
2023/07/29 05:20:00;;;;;;;8.55;2.70;;;;;;;;;;5012611;28;20196;-88
2023/07/29 05:22:34;;;;;;;4.00;2.90;;;;;;;;;;5012987;28;20196;-87
2023/07/29 05:25:05;;;;;;;2.75;2.60;;;;;;;;;;5009882;28;20215;-88
2023/07/29 05:27:35;;;;;;;3.08;2.88;;;;;;;;;;5018621;28;20201;-86
2023/07/29 05:30:04;;;;;;;5.32;2.97;;;;;;;;;;5009509;28;20200;-87
2023/07/29 05:32:31;;;;;;;2.85;2.67;;;;;;;;;;5009737;28;20207;-86
2023/07/29 05:34:58;;;;;;;2.80;2.70;;;;;;;;;;5010010;28;20226;-86
2023/07/29 05:37:27;;;;;;;2.85;2.75;;;;;;;;;;5009700;28;20196;-87
2023/07/29 05:39:54;;;;;;;2.85;2.65;;;;;;;;;;5010068;28;20203;-87
2023/07/29 05:42:26;;;;;;;3.20;2.95;;;;;;;;;;5009682;28;20208;-86
2023/07/29 05:44:53;;;;;;;2.85;2.65;;;;;;;;;;5011677;28;20192;-87
2023/07/29 05:47:20;;;;;;;3.60;3.33;;;;;;;;;;5018010;28;20288;-86
2023/07/29 05:49:50;;;;;;;2.83;2.60;;;;;;;;;;5024376;28;20588;-85
2023/07/29 05:52:18;;;;;;;2.65;2.55;;;;;;;;;;5013759;28;20214;-87
2023/07/29 05:54:46;;;;;;;3.95;2.40;;;;;;;;;;5010114;28;20192;-88
2023/07/29 05:57:16;;;;;;;2.88;2.67;;;;;;;;;;5010021;28;20335;-87
2023/07/29 05:59:44;;;;;;;4.00;3.08;;;;;;;;;;5009408;28;20669;-87
2023/07/29 06:02:12;;;;;;;2.67;2.58;;;;;;;;;;5008991;28;20211;-86
2023/07/29 06:04:39;;;;;;;2.85;2.75;;;;;;;;;;5008540;28;20200;-86
2023/07/29 06:07:06;;;;;;;2.75;2.55;;;;;;;;;;5008940;28;20743;-86
2023/07/29 06:09:33;;;;;;;2.42;2.30;;;;;;;;;;5008772;28;20206;-86
2023/07/29 06:12:00;;;;;;;2.78;2.67;;;;;;;;;;5009030;28;20237;-87
2023/07/29 06:14:27;;;;;;;2.83;2.53;;;;;;;;;;5009134;28;20267;-86
2023/07/29 06:16:56;;;;;;;2.72;2.63;;;;;;;;;;5008005;28;20234;-86
2023/07/29 06:19:23;;;;;;;2.97;2.70;;;;;;;;;;5009171;28;20208;-87
2023/07/29 06:21:50;;;;;;;2.90;2.80;;;;;;;;;;5009993;28;20208;-87
2023/07/29 06:24:18;;;;;;;2.38;2.28;;;;;;;;;;5013761;28;20196;-86
2023/07/29 06:26:44;;;;;;;3.75;2.70;;;;;;;;;;5014056;28;20235;-85
2023/07/29 06:29:13;;;;;;;2.67;2.58;;;;;;;;;;5010646;28;20638;-88
2023/07/29 06:31:40;;;;;;;3.10;2.97;;;;;;;;;;5013468;28;20236;-86
2023/07/29 06:34:10;;;;;;;2.70;2.55;;;;;;;;;;5012462;28;20208;-86
2023/07/29 06:36:41;;;;;;;3.47;2.60;;;;;;;;;;4999493;28;20707;-87
2023/07/29 06:39:09;;;;;;;8.00;3.15;;;;;;;;;;5005168;28;20227;-87
2023/07/29 06:41:36;;;;;;;3.42;3.10;;;;;;;;;;5000926;28;20232;-86
2023/07/29 06:44:03;;;;;;;3.25;2.92;;;;;;;;;;5005198;28;20267;-87
2023/07/29 06:46:31;;;;;;;2.97;2.78;;;;;;;;;;5001681;28;20220;-86
2023/07/29 06:48:59;;;;;;;3.40;2.33;;;;;;;;;;5010031;28;20212;-87
2023/07/29 06:51:29;;;;;;;2.33;2.22;;;;;;;;;;5012072;28;20235;-86
2023/07/29 06:53:56;;;;;;;2.38;2.28;;;;;;;;;;5010241;28;20216;-87
2023/07/29 06:56:23;;;;;;;2.08;2.03;;;;;;;;;;5011143;28;20227;-87
2023/07/29 06:58:51;;;;;;;2.25;2.15;;;;;;;;;;5011001;28;20212;-87
2023/07/29 07:01:18;;;;;;;2.22;2.10;;;;;;;;;;5012458;28;20513;-86
2023/07/29 07:03:45;;;;;;;2.50;2.40;;;;;;;;;;5011883;28;20280;-86
2023/07/29 07:06:12;;;;;;;3.35;2.03;;;;;;;;;;5012832;28;20228;-86
2023/07/29 07:08:41;;;;;;;4.05;2.10;;;;;;;;;;5012869;28;20704;-88
2023/07/29 07:11:08;;;;;;;2.28;2.17;;;;;;;;;;5011619;28;20196;-86
2023/07/29 07:13:35;;;;;;;4.35;1.98;;;;;;;;;;5011621;28;20238;-85
2023/07/29 07:16:02;;;;;;;1.70;1.65;;;;;;;;;;5012908;28;20203;-88
2023/07/29 07:18:29;;;;;;;1.98;1.88;;;;;;;;;;5013887;28;20653;-88
2023/07/29 07:20:57;;;;;;;1.95;1.85;;;;;;;;;;5012166;28;20390;-86
2023/07/29 07:23:25;;;;;;;2.00;1.95;;;;;;;;;;5015193;28;20203;-85
2023/07/29 07:25:53;;;;;;;3.10;2.38;;;;;;;;;;5015440;28;20247;-86
2023/07/29 07:28:21;;;;;;;4.68;2.13;;;;;;;;;;5012539;28;20818;-86
2023/07/29 07:30:48;;;;;;;2.35;2.22;;;;;;;;;;5010249;28;20196;-87
2023/07/29 07:33:15;;;;;;;2.72;2.42;;;;;;;;;;5010443;28;20204;-87
2023/07/29 07:35:43;;;;;;;2.55;2.28;;;;;;;;;;5009416;28;20196;-86
2023/07/29 07:38:10;;;;;;;2.25;2.15;;;;;;;;;;5014203;28;20208;-87
2023/07/29 07:40:37;;;;;;;2.72;2.50;;;;;;;;;;5010932;28;20649;-86
2023/07/29 07:43:05;;;;;;;2.33;2.22;;;;;;;;;;5009094;28;20223;-86
2023/07/29 07:45:34;;;;;;;2.30;2.20;;;;;;;;;;5007963;28;20713;-88
2023/07/29 07:48:02;;;;;;;2.67;2.47;;;;;;;;;;5008601;28;20209;-86
2023/07/29 07:50:30;;;;;;;6.30;2.50;;;;;;;;;;5003469;28;20696;-88
2023/07/29 07:52:58;;;;;;;5.00;2.20;;;;;;;;;;4992297;28;20205;-86
2023/07/29 07:55:25;;;;;;;5.43;2.75;;;;;;;;;;5004375;28;20216;-84
2023/07/29 07:57:53;;;;;;;2.53;2.33;;;;;;;;;;5009868;28;20204;-86
2023/07/29 08:00:34;;;;;;;2.55;2.45;;;;;;;;;;5000720;28;20200;-86
2023/07/29 08:03:01;;;;;;;3.53;2.60;;;;;;;;;;5002667;28;20204;-86
2023/07/29 08:05:32;;;;;;;2.50;2.40;;;;;;;;;;5007989;28;20232;-89
2023/07/29 08:08:01;;;;;;;2.60;2.42;;;;;;;;;;5011705;28;20224;-90
2023/07/29 08:10:29;;;;;;;2.92;2.72;;;;;;;;;;4997279;28;20287;-89
2023/07/29 08:12:55;;;;;;;2.90;2.70;;;;;;;;;;5012702;28;20562;-91
2023/07/29 08:15:26;;;;;;;3.15;2.70;;;;;;;;;;5015630;28;20255;-89
2023/07/29 08:17:54;;;;;;;2.97;2.58;;;;;;;;;;5018855;28;20224;-89
2023/07/29 08:20:22;;;;;;;2.97;2.80;;;;;;;;;;5015215;28;20228;-90
2023/07/29 08:22:49;;;;;;;3.40;2.83;;;;;;;;;;5032843;28;20245;-89
2023/07/29 08:25:16;;;;;;;2.83;2.63;;;;;;;;;;5027859;28;20296;-90
2023/07/29 08:27:43;;;;;;;3.08;2.40;;;;;;;;;;5023958;28;20232;-90
2023/07/29 08:30:10;;;;;;;2.90;2.70;;;;;;;;;;5026847;28;20228;-91
2023/07/29 08:32:39;;;;;;;3.80;2.38;;;;;;;;;;5032843;28;20236;-90
2023/07/29 08:35:06;;;;;;;2.90;2.70;;;;;;;;;;5022531;28;20232;-89
2023/07/29 08:37:36;;;;;;;3.00;2.72;;;;;;;;;;5012577;28;20299;-90
2023/07/29 08:40:04;;;;;;;2.45;2.35;;;;;;;;;;5010467;28;20246;-90
2023/07/29 08:42:35;;;;;;;2.28;2.17;;;;;;;;;;5011780;28;20228;-90
2023/07/29 08:45:08;;;;;;;5.55;2.42;;;;;;;;;;5009936;28;20984;-91
2023/07/29 08:47:37;;;;;;;2.50;2.40;;;;;;;;;;5009401;28;20252;-90
2023/07/29 08:50:07;;;;;;;2.08;1.90;;;;;;;;;;5009371;28;20228;-91
2023/07/29 08:52:35;;;;;;;7.50;2.33;;;;;;;;;;5009297;28;20260;-91
2023/07/29 08:55:02;;;;;;;2.70;2.40;;;;;;;;;;5009520;28;20252;-91
2023/07/29 08:57:29;;;;;;;2.78;2.58;;;;;;;;;;5009836;28;20279;-93
2023/07/29 08:59:58;;;;;;;2.03;1.63;;;;;;;;;;5010129;28;20282;-91
2023/07/29 09:02:26;;;;;;;1.90;1.80;;;;;;;;;;5009988;28;20221;-91
2023/07/29 09:04:54;;;;;;;2.00;1.90;;;;;;;;;;5008636;28;20248;-92
2023/07/29 09:07:24;;;;;;;1.40;1.40;;;;;;;;;;5010835;28;20236;-93
2023/07/29 09:09:53;;;;;;;3.40;1.27;;;;;;;;;;5010327;28;20250;-90
2023/07/29 09:12:23;;;;;;;1.40;1.40;;;;;;;;;;5010643;28;20234;-90
2023/07/29 09:14:52;;;;;;;1.67;1.65;;;;;;;;;;5009787;28;20221;-91
2023/07/29 09:17:19;;;;;;;2.17;1.98;;;;;;;;;;5016168;28;20231;-90
2023/07/29 09:19:52;;;;;;;2.17;1.42;;;;;;;;;;5029148;28;20240;-91
2023/07/29 09:22:19;;;;;;;1.10;1.10;;;;;;;;;;5024408;28;20788;-92
2023/07/29 09:24:49;;;;;;;0.88;0.88;;;;;;;;;;5027123;28;20220;-90
2023/07/29 09:27:25;;;;;;;1.15;1.15;;;;;;;;;;5026501;28;20244;-90
2023/07/29 09:29:52;;;;;;;1.73;1.60;;;;;;;;;;5017321;28;20221;-90
2023/07/29 09:32:23;;;;;;;1.30;1.30;;;;;;;;;;5017102;28;20436;-88
2023/07/29 09:34:55;;;;;;;1.52;1.52;;;;;;;;;;5018987;28;20229;-90
2023/07/29 09:37:25;;;;;;;1.40;1.40;;;;;;;;;;5014305;28;20229;-89
2023/07/29 09:39:54;;;;;;;1.55;1.20;;;;;;;;;;5011023;28;20225;-90
2023/07/29 09:42:21;;;;;;;1.40;1.30;;;;;;;;;;5009081;28;20269;-89
2023/07/29 09:44:50;;;;;;;1.25;1.25;;;;;;;;;;5007948;28;20240;-89
2023/07/29 09:47:21;;;;;;;1.30;1.30;;;;;;;;;;4994090;28;20644;-88
2023/07/29 09:49:49;;;;;;;1.65;1.40;;;;;;;;;;5001579;28;20228;-88
2023/07/29 09:52:17;;;;;;;4.85;1.30;;;;;;;;;;5007929;28;20620;-88
2023/07/29 09:54:45;;;;;;;1.73;1.08;;;;;;;;;;5008596;28;20688;-88
2023/07/29 09:57:16;;;;;;;1.65;1.55;;;;;;;;;;5007002;28;20240;-90
2023/07/29 09:59:43;;;;;;;1.30;1.10;;;;;;;;;;5009451;28;20650;-89
2023/07/29 10:02:14;;;;;;;1.20;1.20;;;;;;;;;;5007382;28;20243;-89
2023/07/29 10:04:43;;;;;;;1.23;1.23;;;;;;;;;;5007726;28;20319;-88
2023/07/29 10:07:11;;;;;;;2.58;1.00;;;;;;;;;;5008291;28;20236;-90
2023/07/29 10:09:39;;;;;;;1.00;1.00;;;;;;;;;;5007565;28;20741;-91
2023/07/29 10:12:07;;;;;;;2.55;0.95;;;;;;;;;;5007652;28;20232;-89
2023/07/29 10:14:38;;;;;;;1.00;1.00;;;;;;;;;;5008392;28;20247;-88
2023/07/29 10:17:06;;;;;;;0.75;0.75;;;;;;;;;;5007619;28;20229;-89
2023/07/29 10:19:36;;;;;;;0.90;0.90;;;;;;;;;;5008134;28;20228;-89
2023/07/29 10:22:04;;;;;;;0.75;0.75;;;;;;;;;;5008511;28;20278;-89
2023/07/29 10:24:32;;;;;;;1.08;0.98;;;;;;;;;;5008180;28;20264;-91
2023/07/29 10:27:03;;;;;;;0.60;0.60;;;;;;;;;;5008353;28;20245;-93
2023/07/29 10:29:32;;;;;;;0.95;0.90;;;;;;;;;;5008694;28;20240;-89
2023/07/29 10:32:02;;;;;;;0.80;0.80;;;;;;;;;;5008554;28;20225;-91
2023/07/29 10:34:30;;;;;;;0.80;0.80;;;;;;;;;;5009608;28;20600;-90
2023/07/29 10:36:59;;;;;;;0.60;0.60;;;;;;;;;;5010543;28;20304;-91
2023/07/29 10:39:26;;;;;;;0.90;0.90;;;;;;;;;;5008498;28;20303;-89
2023/07/29 10:41:57;;;;;;;1.48;0.70;;;;;;;;;;5007759;28;20280;-90
2023/07/29 10:44:44;;;;;;;0.80;0.80;;;;;;;;;;5008534;28;20295;-89
2023/07/29 10:47:15;;;;;;;0.77;0.77;;;;;;;;;;5007217;28;20286;-90
2023/07/29 10:49:43;;;;;;;3.20;1.00;;;;;;;;;;5008485;28;20325;-89
2023/07/29 10:52:14;;;;;;;1.05;1.05;;;;;;;;;;5008129;28;20693;-88
2023/07/29 10:54:43;;;;;;;1.35;1.00;;;;;;;;;;5015680;28;20267;-90
2023/07/29 10:57:14;;;;;;;0.90;0.90;;;;;;;;;;5029652;28;20233;-89
2023/07/29 10:59:42;;;;;;;1.00;1.00;;;;;;;;;;5030357;28;20240;-90
2023/07/29 11:02:17;;;;;;;0.70;0.70;;;;;;;;;;5024185;28;20288;-89
2023/07/29 11:04:48;;;;;;;0.60;0.60;;;;;;;;;;5014355;28;20639;-91
2023/07/29 11:07:28;;;;;;;0.95;0.70;;;;;;;;;;5011334;28;20793;-90
2023/07/29 11:10:04;;;;;;;0.75;0.75;;;;;;;;;;5013462;28;20712;-91
2023/07/29 11:12:37;;;;;;;0.52;0.52;;;;;;;;;;5013134;28;20353;-89
2023/07/29 11:15:05;;;;;;;0.88;0.70;;;;;;;;;;5013021;28;20319;-90
2023/07/29 11:17:35;;;;;;;0.70;0.70;;;;;;;;;;5012764;28;20664;-91
2023/07/29 11:20:04;;;;;;;0.98;0.98;;;;;;;;;;5012593;28;20270;-90
2023/07/29 11:22:33;;;;;;;0.80;0.80;;;;;;;;;;5012729;28;20229;-91
2023/07/29 11:25:00;;;;;;;0.70;0.70;;;;;;;;;;5012998;28;20332;-93
2023/07/29 11:27:28;;;;;;;0.75;0.75;;;;;;;;;;5012643;28;20243;-89
2023/07/29 11:30:04;;;;;;;0.90;0.70;;;;;;;;;;5012495;28;20252;-90
2023/07/29 11:32:32;;;;;;;0.60;0.60;;;;;;;;;;5011616;28;20756;-89
2023/07/29 11:35:04;;;;;;;1.30;0.63;;;;;;;;;;5013036;28;20232;-90
2023/07/29 11:37:31;;;;;;;2.55;0.70;;;;;;;;;;5011607;28;20264;-90
2023/07/29 11:40:00;;;;;;;0.82;0.82;;;;;;;;;;5012455;28;20295;-89
2023/07/29 11:42:32;;;;;;;0.65;0.50;;;;;;;;;;5012662;28;20227;-89
2023/07/29 11:44:59;;;;;;;0.93;0.73;;;;;;;;;;5013983;28;20229;-89
2023/07/29 11:47:27;;;;;;;1.33;1.00;;;;;;;;;;5025138;28;20224;-88
2023/07/29 11:49:56;;;;;;;0.90;0.90;;;;;;;;;;5024376;28;20232;-89
2023/07/29 11:52:31;;;;;;;0.80;0.80;;;;;;;;;;5016633;28;20251;-90
2023/07/29 11:55:01;;;;;;;3.78;0.77;;;;;;;;;;5012890;28;20605;-89
2023/07/29 11:57:30;;;;;;;0.90;0.90;;;;;;;;;;5012511;28;20311;-92
2023/07/29 11:59:57;;;;;;;0.70;0.70;;;;;;;;;;5014158;28;20609;-90
2023/07/29 12:02:25;;;;;;;0.88;0.88;;;;;;;;;;5014467;28;20225;-88
2023/07/29 12:04:53;;;;;;;0.80;0.80;;;;;;;;;;5022924;28;20254;-90
2023/07/29 12:07:21;;;;;;;0.75;0.75;;;;;;;;;;5003165;28;20323;-90
2023/07/29 12:09:51;;;;;;;0.60;0.60;;;;;;;;;;5000463;28;20221;-91
2023/07/29 12:12:19;;;;;;;1.83;0.90;;;;;;;;;;5000439;28;20249;-89
2023/07/29 12:14:47;;;;;;;0.70;0.70;;;;;;;;;;4999865;28;20225;-89
2023/07/29 12:17:14;;;;;;;0.80;0.80;;;;;;;;;;4999966;28;20288;-90
2023/07/29 12:19:43;;;;;;;0.50;0.50;;;;;;;;;;5001452;28;20305;-89
2023/07/29 12:22:10;;;;;;;1.13;1.00;;;;;;;;;;5005997;28;20260;-89
2023/07/29 12:24:40;;;;;;;0.80;0.80;;;;;;;;;;5008164;28;20225;-90
2023/07/29 12:27:12;;;;;;;0.90;0.90;;;;;;;;;;5007791;28;20237;-89
2023/07/29 12:29:48;;;;;;;0.75;0.75;;;;;;;;;;5010191;28;20244;-89
2023/07/29 12:32:17;;;;;;;0.50;0.50;;;;;;;;;;5010654;28;20369;-90
2023/07/29 12:34:44;;;;;;;0.98;0.82;;;;;;;;;;5013100;28;20241;-89
2023/07/29 12:37:14;;;;;;;0.65;0.50;;;;;;;;;;5027377;28;20295;-89
2023/07/29 12:39:43;;;;;;;0.60;0.60;;;;;;;;;;5027880;28;20229;-87
2023/07/29 12:42:14;;;;;;;0.68;0.68;;;;;;;;;;5024839;28;20243;-90
2023/07/29 12:44:41;;;;;;;0.68;0.68;;;;;;;;;;5020342;28;20260;-89
2023/07/29 12:47:11;;;;;;;1.00;1.00;;;;;;;;;;5018730;28;20244;-89
2023/07/29 12:49:39;;;;;;;0.80;0.80;;;;;;;;;;5020648;28;20228;-91
2023/07/29 12:52:10;;;;;;;0.70;0.70;;;;;;;;;;5017234;28;20714;-92
2023/07/29 12:54:37;;;;;;;0.80;0.75;;;;;;;;;;5016408;28;20225;-88
2023/07/29 12:57:07;;;;;;;2.58;1.02;;;;;;;;;;5014115;28;20323;-89
2023/07/29 12:59:40;;;;;;;0.70;0.70;;;;;;;;;;5014635;28;20240;-90
2023/07/29 13:02:07;;;;;;;0.90;0.90;;;;;;;;;;5014274;28;20277;-89
2023/07/29 13:04:41;;;;;;;0.75;0.70;;;;;;;;;;5014056;28;20229;-88
2023/07/29 13:07:08;;;;;;;1.40;0.80;;;;;;;;;;5008566;28;20236;-89
2023/07/29 13:09:39;;;;;;;0.80;0.80;;;;;;;;;;5012351;28;20221;-89
2023/07/29 13:12:09;;;;;;;0.70;0.70;;;;;;;;;;5015563;28;20233;-91
2023/07/29 13:14:47;;;;;;;0.90;0.90;;;;;;;;;;5015339;28;20292;-89
2023/07/29 13:17:15;;;;;;;0.70;0.70;;;;;;;;;;5017190;28;20220;-91
2023/07/29 13:19:48;;;;;;;0.65;0.65;;;;;;;;;;5016928;28;20392;-89
2023/07/29 13:22:17;;;;;;;0.73;0.73;;;;;;;;;;5020048;28;20284;-90
2023/07/29 13:24:44;;;;;;;1.00;1.00;;;;;;;;;;5014958;28;20232;-88
2023/07/29 13:27:12;;;;;;;0.80;0.80;;;;;;;;;;5012728;28;20233;-88
2023/07/29 13:29:41;;;;;;;0.63;0.63;;;;;;;;;;5010909;28;20220;-89
2023/07/29 13:32:12;;;;;;;0.80;0.80;;;;;;;;;;5010659;28;20279;-89
2023/07/29 13:34:41;;;;;;;0.70;0.70;;;;;;;;;;5008481;28;20604;-88
2023/07/29 13:37:07;;;;;;;0.90;0.90;;;;;;;;;;5009769;28;20260;-89
2023/07/29 13:39:34;;;;;;;1.10;0.73;;;;;;;;;;5008982;28;20232;-89
2023/07/29 13:42:02;;;;;;;0.90;0.90;;;;;;;;;;5010485;28;20223;-89
2023/07/29 13:44:29;;;;;;;1.10;1.10;;;;;;;;;;5008852;28;20727;-89
2023/07/29 13:46:58;;;;;;;1.00;1.00;;;;;;;;;;5009834;28;20239;-89
2023/07/29 13:49:25;;;;;;;0.90;0.90;;;;;;;;;;5010614;28;20228;-89
2023/07/29 13:51:52;;;;;;;1.10;1.00;;;;;;;;;;5009488;28;20311;-89
2023/07/29 13:54:19;;;;;;;1.60;1.30;;;;;;;;;;5027496;28;20224;-89
2023/07/29 13:56:49;;;;;;;3.08;1.63;;;;;;;;;;5030360;28;20254;-88
2023/07/29 13:59:16;;;;;;;1.38;1.30;;;;;;;;;;5031415;28;20307;-89
2023/07/29 14:01:44;;;;;;;1.20;1.20;;;;;;;;;;5032430;28;20204;-88
2023/07/29 14:04:13;;;;;;;1.60;1.50;;;;;;;;;;5031264;28;20211;-87
2023/07/29 14:06:41;;;;;;;2.35;1.48;;;;;;;;;;5029675;28;20294;-88
2023/07/29 14:09:10;;;;;;;2.55;1.52;;;;;;;;;;5030743;28;20731;-88
2023/07/29 14:11:40;;;;;;;1.50;1.30;;;;;;;;;;5030458;28;20226;-88
2023/07/29 14:14:10;;;;;;;1.85;1.35;;;;;;;;;;5029695;28;20208;-89
2023/07/29 14:16:38;;;;;;;1.33;1.33;;;;;;;;;;5029827;28;20196;-88
2023/07/29 14:19:06;;;;;;;4.80;1.30;;;;;;;;;;5030245;28;20204;-90
2023/07/29 14:24:50;;;;;;;3.72;1.33;;;;;;;;;;4956017;28;20653;-87
2023/07/29 14:30:48;;;;;;;1.27;1.17;;;;;;;;;;4947253;28;20361;-88
2023/07/29 14:33:15;;;;;;;1.23;1.23;;;;;;;;;;4990171;28;20212;-90
2023/07/29 14:35:44;;;;;;;0.90;0.90;;;;;;;;;;5028406;28;20222;-88
2023/07/29 14:38:14;;;;;;;1.20;1.10;;;;;;;;;;5029597;28;20269;-89
2023/07/29 14:40:42;;;;;;;4.72;1.27;;;;;;;;;;5028814;28;20210;-88
2023/07/29 14:43:10;;;;;;;1.00;1.00;;;;;;;;;;5030314;28;20266;-88
2023/07/29 14:45:44;;;;;;;1.15;1.15;;;;;;;;;;5032983;28;20207;-87
2023/07/29 14:48:18;;;;;;;1.17;1.17;;;;;;;;;;5033966;28;20212;-89
2023/07/29 14:50:59;;;;;;;1.00;1.00;;;;;;;;;;5033954;28;20207;-89
2023/07/29 14:53:30;;;;;;;4.18;1.00;;;;;;;;;;5033821;28;20262;-87
2023/07/29 14:56:05;;;;;;;0.90;0.90;;;;;;;;;;5017205;28;20293;-87
2023/07/29 15:01:48;;;;;;;0.98;0.98;;;;;;;;;;5032546;28;20212;-89